Time;durP1;ratioP1;P1;durP2;ratioP2;P2;SDS_P1;SDS_P2;PMS_P1;PMS_P2;Temp;Humidity;BMP_temperature;BMP_pressure;BME280_temperature;BME280_humidity;BME280_pressure;Samples;Min_cycle;Max_cycle;Signal;HPM_P1;HPM_P2
2023/10/14 00:02:12;;;;;;;16.93;9.33;;;;;;;;;;5071848;28;20414;-80
2023/10/14 00:04:38;;;;;;;18.20;10.10;;;;;;;;;;5072359;28;20416;-81
2023/10/14 00:07:08;;;;;;;11.13;7.67;;;;;;;;;;5072163;28;20837;-82
2023/10/14 00:09:42;;;;;;;14.07;8.13;;;;;;;;;;5072307;28;20973;-80
2023/10/14 00:12:13;;;;;;;14.90;8.27;;;;;;;;;;5072414;28;20764;-78
2023/10/14 00:14:42;;;;;;;10.40;7.80;;;;;;;;;;5072334;28;20419;-81
2023/10/14 00:17:15;;;;;;;13.60;7.90;;;;;;;;;;5072313;28;20829;-83
2023/10/14 00:19:41;;;;;;;16.13;9.10;;;;;;;;;;5072215;28;20418;-81
2023/10/14 00:22:08;;;;;;;13.23;7.30;;;;;;;;;;5071911;28;20415;-79
2023/10/14 00:24:37;;;;;;;13.77;8.37;;;;;;;;;;5072213;28;20412;-81
2023/10/14 00:27:07;;;;;;;9.50;5.40;;;;;;;;;;5072169;28;20463;-78
2023/10/14 00:29:33;;;;;;;7.17;1.43;;;;;;;;;;5072107;28;20471;-77
2023/10/14 00:31:59;;;;;;;3.10;0.90;;;;;;;;;;5072108;28;20768;-79
2023/10/14 00:34:25;;;;;;;7.53;1.50;;;;;;;;;;5071911;28;20412;-78
2023/10/14 00:36:53;;;;;;;4.20;0.80;;;;;;;;;;5069099;28;20257;-78
2023/10/14 00:39:27;;;;;;;4.30;0.67;;;;;;;;;;5072086;28;20484;-78
2023/10/14 00:41:53;;;;;;;2.90;0.40;;;;;;;;;;5072119;28;20409;-78
2023/10/14 00:44:20;;;;;;;4.80;0.40;;;;;;;;;;5072042;28;20425;-78
2023/10/14 00:46:49;;;;;;;1.63;0.40;;;;;;;;;;5071901;28;20511;-78
2023/10/14 00:49:22;;;;;;;1.43;0.30;;;;;;;;;;5071993;28;20473;-78
2023/10/14 00:51:51;;;;;;;3.03;0.50;;;;;;;;;;5053604;28;20455;-78
2023/10/14 00:55:24;;;;;;;1.97;0.30;;;;;;;;;;5071971;28;20516;-78
2023/10/14 00:59:41;;;;;;;1.20;0.40;;;;;;;;;;5072007;28;20516;-79
2023/10/14 01:02:09;;;;;;;3.30;0.57;;;;;;;;;;5071787;28;20909;-79
2023/10/14 01:04:35;;;;;;;2.93;0.40;;;;;;;;;;5071852;28;20420;-80
2023/10/14 01:09:48;;;;;;;3.93;0.20;;;;;;;;;;5071685;28;20550;-80
2023/10/14 01:15:09;;;;;;;2.10;0.40;;;;;;;;;;5073788;28;20432;-80
2023/10/14 01:17:35;;;;;;;6.53;0.67;;;;;;;;;;5075237;28;20980;-80
2023/10/14 01:22:41;;;;;;;4.00;0.40;;;;;;;;;;5075421;28;20180;-80
2023/10/14 01:25:12;;;;;;;2.30;0.77;;;;;;;;;;5075336;28;20927;-80
2023/10/14 01:27:38;;;;;;;3.00;0.20;;;;;;;;;;5075402;28;20429;-80
2023/10/14 01:30:10;;;;;;;3.20;0.30;;;;;;;;;;5075414;28;20470;-81
2023/10/14 01:35:12;;;;;;;5.10;0.33;;;;;;;;;;5074683;28;20416;-80
2023/10/14 01:37:38;;;;;;;2.63;0.30;;;;;;;;;;5075096;28;20826;-79
2023/10/14 01:40:17;;;;;;;1.83;0.40;;;;;;;;;;5075063;28;20420;-79
2023/10/14 01:42:43;;;;;;;3.67;0.40;;;;;;;;;;5075097;28;20420;-79
2023/10/14 01:45:09;;;;;;;3.20;0.60;;;;;;;;;;5074937;28;20445;-80
2023/10/14 01:47:43;;;;;;;2.47;0.33;;;;;;;;;;5074958;28;20452;-79
2023/10/14 01:50:12;;;;;;;6.57;0.50;;;;;;;;;;5074531;28;20908;-80
2023/10/14 01:52:38;;;;;;;4.23;0.60;;;;;;;;;;5074780;28;20558;-79
2023/10/14 01:55:05;;;;;;;5.43;0.93;;;;;;;;;;5056844;28;20477;-80
2023/10/14 01:57:31;;;;;;;7.43;1.00;;;;;;;;;;5074674;28;20415;-80
2023/10/14 01:59:57;;;;;;;1.60;0.30;;;;;;;;;;5074722;28;20412;-80
2023/10/14 02:02:23;;;;;;;4.30;0.23;;;;;;;;;;5074567;28;20541;-81
2023/10/14 02:04:56;;;;;;;1.90;0.40;;;;;;;;;;5056234;28;20909;-81
2023/10/14 02:07:22;;;;;;;6.50;0.50;;;;;;;;;;5074572;28;20400;-80
2023/10/14 02:09:48;;;;;;;1.63;0.20;;;;;;;;;;5074422;28;20463;-78
2023/10/14 02:12:15;;;;;;;2.93;0.40;;;;;;;;;;5074576;28;20411;-78
2023/10/14 02:14:44;;;;;;;3.47;0.40;;;;;;;;;;5074442;28;20492;-80
2023/10/14 02:17:11;;;;;;;2.40;0.40;;;;;;;;;;5074312;28;20424;-81
2023/10/14 02:19:36;;;;;;;2.20;0.43;;;;;;;;;;5074017;28;20400;-80
2023/10/14 02:22:09;;;;;;;6.27;0.50;;;;;;;;;;5073992;28;21205;-81
2023/10/14 02:24:36;;;;;;;4.83;0.57;;;;;;;;;;5074546;28;20530;-81
2023/10/14 02:27:12;;;;;;;3.03;0.50;;;;;;;;;;5072356;28;20409;-82
2023/10/14 02:29:43;;;;;;;1.10;0.33;;;;;;;;;;5072759;28;20546;-82
2023/10/14 02:32:11;;;;;;;2.93;0.20;;;;;;;;;;5055655;28;20921;-88
2023/10/14 02:34:38;;;;;;;3.63;0.37;;;;;;;;;;5056914;28;20754;-82
2023/10/14 02:37:07;;;;;;;6.00;0.57;;;;;;;;;;5074915;28;20415;-86
2023/10/14 02:39:33;;;;;;;2.80;0.23;;;;;;;;;;5074214;28;20455;-81
2023/10/14 02:41:59;;;;;;;1.77;0.37;;;;;;;;;;5057048;28;20439;-82
2023/10/14 02:44:30;;;;;;;4.40;0.40;;;;;;;;;;5070296;28;20408;-81
2023/10/14 02:47:01;;;;;;;3.17;0.20;;;;;;;;;;5068057;28;20488;-81
2023/10/14 02:49:27;;;;;;;3.30;0.37;;;;;;;;;;5045183;28;20455;-83
2023/10/14 02:52:00;;;;;;;4.80;0.40;;;;;;;;;;5056559;28;20436;-80
2023/10/14 02:59:19;;;;;;;2.20;0.53;;;;;;;;;;5073755;28;20177;-81
2023/10/14 03:01:52;;;;;;;4.13;0.80;;;;;;;;;;5056499;28;20420;-92
2023/10/14 03:04:25;;;;;;;2.83;0.60;;;;;;;;;;5057495;28;20919;-83
2023/10/14 03:06:55;;;;;;;3.53;0.50;;;;;;;;;;5074055;28;20404;-84
2023/10/14 03:09:33;;;;;;;6.30;0.30;;;;;;;;;;5074721;28;20470;-83
2023/10/14 03:11:59;;;;;;;2.30;0.27;;;;;;;;;;5074770;28;20396;-92
2023/10/14 03:14:25;;;;;;;4.30;0.53;;;;;;;;;;5074725;28;20395;-83
2023/10/14 03:16:52;;;;;;;3.97;0.33;;;;;;;;;;5074732;28;20413;-89
2023/10/14 03:19:18;;;;;;;1.47;0.20;;;;;;;;;;5084003;28;20431;-83
2023/10/14 03:21:58;;;;;;;5.90;0.50;;;;;;;;;;5056295;28;20420;-81
2023/10/14 03:24:25;;;;;;;4.00;0.30;;;;;;;;;;5074740;28;20418;-83
2023/10/14 03:26:57;;;;;;;7.10;0.40;;;;;;;;;;5056677;28;20419;-84
2023/10/14 03:29:25;;;;;;;4.30;0.50;;;;;;;;;;5074336;28;20542;-91
2023/10/14 03:31:52;;;;;;;3.27;0.40;;;;;;;;;;5074085;28;20483;-83
2023/10/14 03:34:18;;;;;;;4.00;0.53;;;;;;;;;;5073633;28;20407;-83
2023/10/14 03:36:49;;;;;;;3.77;0.70;;;;;;;;;;5072992;28;20821;-86
2023/10/14 03:39:21;;;;;;;3.43;0.37;;;;;;;;;;5056537;28;20184;-85
2023/10/14 03:41:52;;;;;;;3.50;0.40;;;;;;;;;;5073889;28;20433;-81
2023/10/14 03:44:22;;;;;;;4.83;0.43;;;;;;;;;;5074432;28;20412;-82
2023/10/14 03:46:55;;;;;;;3.50;0.20;;;;;;;;;;5074706;28;21287;-90
2023/10/14 03:49:22;;;;;;;5.10;0.53;;;;;;;;;;5074268;28;20473;-90
2023/10/14 03:51:51;;;;;;;4.13;0.60;;;;;;;;;;5073902;28;20403;-82
2023/10/14 03:54:23;;;;;;;6.93;0.40;;;;;;;;;;5073910;28;20423;-90
2023/10/14 03:56:50;;;;;;;6.17;0.40;;;;;;;;;;5073818;28;20399;-90
2023/10/14 03:59:25;;;;;;;2.93;0.53;;;;;;;;;;5073886;28;20509;-90
2023/10/14 04:01:57;;;;;;;3.43;0.40;;;;;;;;;;5073759;28;20410;-81
2023/10/14 04:04:24;;;;;;;3.57;0.40;;;;;;;;;;5073070;28;20414;-83
2023/10/14 04:09:43;;;;;;;2.50;0.30;;;;;;;;;;5074675;28;20539;-92
2023/10/14 04:12:09;;;;;;;4.90;1.60;;;;;;;;;;5074052;28;20414;-82
2023/10/14 04:14:40;;;;;;;5.33;0.60;;;;;;;;;;5073870;28;20415;-86
2023/10/14 04:17:10;;;;;;;6.33;0.90;;;;;;;;;;5074063;28;20911;-81
2023/10/14 04:19:44;;;;;;;4.57;0.50;;;;;;;;;;5074456;28;20399;-92
2023/10/14 04:28:17;;;;;;;4.10;0.30;;;;;;;;;;5073796;28;20410;-82
2023/10/14 04:30:32;;;;;;;1.60;0.30;;;;;;;;;;5073659;28;20478;-82
2023/10/14 04:35:31;;;;;;;3.23;0.43;;;;;;;;;;5073229;28;20453;-91
2023/10/14 04:38:15;;;;;;;3.23;0.33;;;;;;;;;;5055146;28;20782;-81
2023/10/14 04:40:45;;;;;;;2.73;0.47;;;;;;;;;;5073890;28;20404;-88
2023/10/14 04:43:18;;;;;;;7.67;0.40;;;;;;;;;;5073126;28;20410;-84
2023/10/14 04:45:52;;;;;;;4.10;0.40;;;;;;;;;;5073536;28;20510;-81
2023/10/14 04:48:35;;;;;;;3.23;0.37;;;;;;;;;;5073542;28;20542;-80
2023/10/14 04:51:15;;;;;;;5.33;0.60;;;;;;;;;;5076938;28;20462;-89
2023/10/14 04:53:43;;;;;;;3.40;0.30;;;;;;;;;;5059488;28;20460;-81
2023/10/14 04:56:21;;;;;;;4.60;0.70;;;;;;;;;;5059194;28;20933;-80
2023/10/14 04:58:47;;;;;;;6.40;0.77;;;;;;;;;;5077460;28;20456;-84
2023/10/14 05:01:19;;;;;;;7.40;0.90;;;;;;;;;;5077171;28;20430;-82
2023/10/14 05:03:46;;;;;;;4.03;1.00;;;;;;;;;;5077108;28;20408;-79
2023/10/14 05:08:44;;;;;;;9.73;1.03;;;;;;;;;;5076565;28;20770;-90
2023/10/14 05:11:14;;;;;;;4.20;0.30;;;;;;;;;;5076821;28;20184;-83
2023/10/14 05:13:42;;;;;;;5.63;0.50;;;;;;;;;;5076718;28;20781;-82
2023/10/14 05:16:15;;;;;;;10.97;1.80;;;;;;;;;;5058321;28;20422;-87
2023/10/14 05:18:43;;;;;;;7.47;0.90;;;;;;;;;;5076593;28;20432;-84
2023/10/14 05:21:20;;;;;;;3.90;0.30;;;;;;;;;;5075963;28;20420;-81
2023/10/14 05:23:46;;;;;;;6.93;0.57;;;;;;;;;;5076582;28;20563;-82
2023/10/14 05:26:14;;;;;;;5.47;0.53;;;;;;;;;;5076288;28;20425;-88
2023/10/14 05:28:42;;;;;;;5.50;0.60;;;;;;;;;;5058152;28;20403;-88
2023/10/14 05:31:08;;;;;;;3.90;0.37;;;;;;;;;;5076231;28;20561;-88
2023/10/14 05:33:37;;;;;;;4.73;0.80;;;;;;;;;;5075975;28;20910;-84
2023/10/14 05:36:05;;;;;;;5.93;0.47;;;;;;;;;;5057694;28;20501;-82
2023/10/14 05:38:30;;;;;;;4.30;0.80;;;;;;;;;;5075511;28;20497;-81
2023/10/14 05:41:00;;;;;;;3.47;0.43;;;;;;;;;;5068989;28;20462;-87
2023/10/14 05:43:31;;;;;;;4.23;0.70;;;;;;;;;;5075440;28;20492;-81
2023/10/14 05:45:57;;;;;;;5.07;0.60;;;;;;;;;;5075702;28;20735;-83
2023/10/14 05:48:30;;;;;;;7.70;1.03;;;;;;;;;;5071802;28;20533;-85
2023/10/14 05:50:56;;;;;;;4.57;0.67;;;;;;;;;;5057777;28;20207;-79
2023/10/14 05:53:22;;;;;;;7.43;0.40;;;;;;;;;;5066474;28;20435;-82
2023/10/14 05:56:09;;;;;;;8.43;0.53;;;;;;;;;;5037109;28;20477;-85
2023/10/14 05:58:36;;;;;;;7.03;0.40;;;;;;;;;;5060885;28;20973;-81
2023/10/14 06:01:07;;;;;;;7.13;0.83;;;;;;;;;;5051563;28;20419;-80
2023/10/14 06:03:33;;;;;;;4.43;0.40;;;;;;;;;;5072319;28;20797;-85
2023/10/14 06:06:02;;;;;;;10.37;0.60;;;;;;;;;;5074996;28;20398;-82
2023/10/14 06:08:32;;;;;;;6.30;0.70;;;;;;;;;;5059954;28;20177;-88
2023/10/14 06:10:59;;;;;;;4.77;0.70;;;;;;;;;;5075629;28;20468;-81
2023/10/14 06:13:27;;;;;;;8.40;1.03;;;;;;;;;;5074816;28;20403;-82
2023/10/14 06:15:53;;;;;;;11.50;1.67;;;;;;;;;;5076795;28;20416;-88
2023/10/14 06:18:19;;;;;;;7.50;0.57;;;;;;;;;;5075675;28;20414;-88
2023/10/14 06:20:45;;;;;;;4.27;0.70;;;;;;;;;;5075851;28;20409;-81
2023/10/14 06:23:12;;;;;;;4.20;0.40;;;;;;;;;;5074960;28;20815;-82
2023/10/14 06:25:38;;;;;;;12.27;1.13;;;;;;;;;;5075222;28;20409;-85
2023/10/14 06:28:04;;;;;;;5.80;1.17;;;;;;;;;;5074837;28;20862;-82
2023/10/14 06:30:33;;;;;;;5.47;0.87;;;;;;;;;;5074180;28;20472;-85
2023/10/14 06:33:03;;;;;;;5.50;0.73;;;;;;;;;;5074843;28;20409;-84
2023/10/14 06:35:31;;;;;;;3.37;0.23;;;;;;;;;;5056851;28;20419;-89
2023/10/14 06:37:58;;;;;;;8.23;0.73;;;;;;;;;;5074972;28;20407;-82
2023/10/14 06:40:24;;;;;;;12.60;0.80;;;;;;;;;;5057255;28;20426;-86
2023/10/14 06:42:50;;;;;;;6.30;0.40;;;;;;;;;;5056916;28;20771;-83
2023/10/14 06:45:31;;;;;;;7.30;0.63;;;;;;;;;;5074586;28;21069;-87
2023/10/14 06:47:57;;;;;;;6.47;1.17;;;;;;;;;;5053623;28;20516;-82
2023/10/14 06:50:26;;;;;;;8.30;1.60;;;;;;;;;;5052876;28;20991;-82
2023/10/14 06:52:58;;;;;;;2.90;0.50;;;;;;;;;;5054403;28;20416;-83
2023/10/14 06:55:28;;;;;;;3.73;0.90;;;;;;;;;;5054404;28;20510;-85
2023/10/14 06:57:55;;;;;;;7.60;1.00;;;;;;;;;;5054294;28;20490;-86
2023/10/14 07:00:29;;;;;;;5.23;0.93;;;;;;;;;;5054243;28;20409;-83
2023/10/14 07:02:57;;;;;;;7.87;0.80;;;;;;;;;;5052405;28;20432;-82
2023/10/14 07:05:23;;;;;;;5.07;0.60;;;;;;;;;;5053575;28;20510;-89
2023/10/14 07:07:49;;;;;;;3.83;0.70;;;;;;;;;;5053519;28;20564;-85
2023/10/14 07:10:15;;;;;;;7.37;0.77;;;;;;;;;;5053340;28;21060;-83
2023/10/14 07:12:42;;;;;;;6.40;0.67;;;;;;;;;;5052993;28;20412;-84
2023/10/14 07:15:12;;;;;;;9.83;1.63;;;;;;;;;;5053803;28;20451;-86
2023/10/14 07:17:38;;;;;;;7.40;1.20;;;;;;;;;;5052562;28;20750;-84
2023/10/14 07:20:07;;;;;;;6.30;0.80;;;;;;;;;;5053249;28;20408;-83
2023/10/14 07:22:33;;;;;;;7.53;0.93;;;;;;;;;;5053629;28;20412;-84
2023/10/14 07:24:58;;;;;;;6.40;0.43;;;;;;;;;;5053540;28;20404;-86
2023/10/14 07:27:24;;;;;;;5.30;0.60;;;;;;;;;;5053452;28;20477;-83
2023/10/14 07:29:50;;;;;;;5.80;1.20;;;;;;;;;;5053113;28;20499;-85
2023/10/14 07:32:19;;;;;;;5.90;0.57;;;;;;;;;;5052599;28;20512;-88
2023/10/14 07:34:52;;;;;;;6.20;1.63;;;;;;;;;;5053254;28;20178;-82
2023/10/14 07:37:20;;;;;;;5.43;1.93;;;;;;;;;;5053829;28;20423;-87
2023/10/14 07:39:52;;;;;;;4.93;0.60;;;;;;;;;;5053754;28;20449;-87
2023/10/14 07:42:18;;;;;;;8.17;1.17;;;;;;;;;;5054012;28;20891;-86
2023/10/14 07:44:44;;;;;;;5.40;0.80;;;;;;;;;;5053247;28;20424;-85
2023/10/14 07:47:11;;;;;;;3.30;0.40;;;;;;;;;;5057785;28;20221;-88
2023/10/14 07:49:38;;;;;;;9.03;1.13;;;;;;;;;;5072947;28;20201;-92
2023/10/14 07:52:06;;;;;;;4.20;1.57;;;;;;;;;;5073305;28;20421;-80
2023/10/14 07:54:36;;;;;;;6.73;0.53;;;;;;;;;;5073638;28;20445;-87
2023/10/14 07:57:02;;;;;;;5.70;1.07;;;;;;;;;;5055193;28;20425;-82
2023/10/14 07:59:34;;;;;;;5.40;0.70;;;;;;;;;;5072839;28;20407;-82
2023/10/14 08:02:00;;;;;;;6.30;0.83;;;;;;;;;;5073491;28;20419;-82
2023/10/14 08:04:28;;;;;;;8.13;0.70;;;;;;;;;;5071797;28;20456;-84
2023/10/14 08:06:54;;;;;;;6.10;0.80;;;;;;;;;;5054515;28;20473;-86
2023/10/14 08:09:28;;;;;;;6.83;0.70;;;;;;;;;;5072531;28;20543;-87
2023/10/14 08:11:54;;;;;;;5.57;0.70;;;;;;;;;;5072800;28;20294;-92
2023/10/14 08:14:20;;;;;;;6.20;0.53;;;;;;;;;;5073864;28;20447;-89
2023/10/14 08:16:47;;;;;;;5.30;0.60;;;;;;;;;;5054828;28;20426;-86
2023/10/14 08:19:13;;;;;;;6.07;0.40;;;;;;;;;;5074411;28;20422;-90
2023/10/14 08:21:39;;;;;;;5.70;1.30;;;;;;;;;;5073175;28;20411;-88
2023/10/14 08:24:07;;;;;;;7.50;0.47;;;;;;;;;;5054219;28;20171;-84
2023/10/14 08:26:34;;;;;;;7.60;1.50;;;;;;;;;;5072827;28;20172;-84
2023/10/14 08:29:00;;;;;;;4.77;0.77;;;;;;;;;;5073072;28;20411;-91
2023/10/14 08:31:26;;;;;;;6.07;0.80;;;;;;;;;;5054862;28;20485;-87
2023/10/14 08:33:52;;;;;;;5.33;0.93;;;;;;;;;;5072625;28;20439;-81
2023/10/14 08:36:18;;;;;;;4.13;0.47;;;;;;;;;;5072763;28;20419;-86
2023/10/14 08:38:44;;;;;;;4.70;0.73;;;;;;;;;;5085711;28;20541;-83
2023/10/14 08:41:16;;;;;;;4.50;0.60;;;;;;;;;;5075758;28;20191;-80
2023/10/14 08:43:49;;;;;;;3.93;0.87;;;;;;;;;;5071322;28;20788;-86
2023/10/14 08:46:17;;;;;;;4.07;1.23;;;;;;;;;;5072678;28;20404;-80
2023/10/14 08:48:43;;;;;;;6.70;1.43;;;;;;;;;;5055834;28;21078;-79
2023/10/14 08:51:11;;;;;;;2.93;0.47;;;;;;;;;;5052512;28;20468;-83
2023/10/14 08:53:40;;;;;;;6.27;1.73;;;;;;;;;;5052566;28;20985;-80
2023/10/14 08:56:07;;;;;;;4.67;1.07;;;;;;;;;;5052224;28;20421;-80
2023/10/14 08:58:37;;;;;;;3.63;0.53;;;;;;;;;;5065443;28;20421;-88
2023/10/14 09:01:06;;;;;;;7.83;0.93;;;;;;;;;;5072793;28;20502;-89
2023/10/14 09:03:32;;;;;;;5.43;1.23;;;;;;;;;;5072224;28;20907;-80
2023/10/14 09:05:58;;;;;;;3.87;0.67;;;;;;;;;;5072743;28;20407;-81
2023/10/14 09:08:32;;;;;;;7.80;1.17;;;;;;;;;;5072437;28;20433;-80
2023/10/14 09:10:58;;;;;;;4.40;0.70;;;;;;;;;;5072366;28;20532;-85
2023/10/14 09:13:24;;;;;;;5.07;0.63;;;;;;;;;;5072716;28;20407;-80
2023/10/14 09:15:51;;;;;;;3.03;0.33;;;;;;;;;;5072124;28;20584;-86
2023/10/14 09:18:18;;;;;;;3.60;0.93;;;;;;;;;;5072634;28;20408;-89
2023/10/14 09:20:45;;;;;;;4.57;0.53;;;;;;;;;;5072043;28;20965;-87
2023/10/14 09:23:29;;;;;;;5.47;0.73;;;;;;;;;;5072186;28;20407;-83
2023/10/14 09:25:56;;;;;;;6.10;0.90;;;;;;;;;;5072326;28;20446;-84
2023/10/14 09:28:23;;;;;;;7.03;1.03;;;;;;;;;;5072405;28;20508;-90
2023/10/14 09:30:53;;;;;;;5.63;0.87;;;;;;;;;;5054365;28;20510;-81
2023/10/14 09:33:27;;;;;;;6.00;1.83;;;;;;;;;;5071972;28;20427;-82
2023/10/14 09:35:54;;;;;;;6.00;0.70;;;;;;;;;;5073486;28;20403;-81
2023/10/14 09:38:22;;;;;;;2.90;0.67;;;;;;;;;;5075740;28;20411;-79
2023/10/14 09:40:52;;;;;;;5.60;0.77;;;;;;;;;;5075834;28;20427;-80
2023/10/14 09:43:18;;;;;;;6.57;1.20;;;;;;;;;;5075717;28;20427;-80
2023/10/14 09:45:47;;;;;;;4.10;1.03;;;;;;;;;;5071902;28;20418;-79
2023/10/14 09:48:15;;;;;;;7.83;0.60;;;;;;;;;;5055347;28;21231;-79
2023/10/14 09:50:41;;;;;;;5.07;0.43;;;;;;;;;;5055159;28;20987;-89
2023/10/14 09:53:08;;;;;;;3.60;0.87;;;;;;;;;;5037570;28;20424;-79
2023/10/14 09:55:37;;;;;;;3.57;0.60;;;;;;;;;;5060449;28;20423;-80
2023/10/14 09:58:04;;;;;;;4.43;0.60;;;;;;;;;;5065548;28;20415;-79
2023/10/14 10:00:33;;;;;;;5.13;0.83;;;;;;;;;;5065861;28;20418;-82
2023/10/14 10:02:59;;;;;;;3.80;0.43;;;;;;;;;;5063150;28;20728;-78
2023/10/14 10:05:36;;;;;;;3.60;0.73;;;;;;;;;;5057971;28;20427;-80
2023/10/14 10:08:14;;;;;;;6.70;0.70;;;;;;;;;;5075195;28;20814;-77
2023/10/14 10:10:40;;;;;;;3.00;0.90;;;;;;;;;;5074996;28;20466;-78
2023/10/14 10:13:06;;;;;;;5.97;1.10;;;;;;;;;;5075197;28;20434;-81
2023/10/14 10:15:35;;;;;;;4.60;0.90;;;;;;;;;;5075313;28;20922;-80
2023/10/14 10:18:05;;;;;;;2.37;0.70;;;;;;;;;;5075236;28;20407;-86
2023/10/14 10:20:35;;;;;;;4.67;0.60;;;;;;;;;;5074605;28;20419;-79
2023/10/14 10:23:04;;;;;;;9.30;0.73;;;;;;;;;;5075082;28;20758;-80
2023/10/14 10:25:50;;;;;;;5.83;1.33;;;;;;;;;;5074787;28;20939;-79
2023/10/14 10:28:45;;;;;;;4.80;0.63;;;;;;;;;;5074816;28;20521;-77
2023/10/14 10:31:14;;;;;;;3.57;0.57;;;;;;;;;;5074661;28;20528;-79
2023/10/14 10:33:47;;;;;;;7.37;0.63;;;;;;;;;;5056360;28;20423;-78
2023/10/14 10:36:13;;;;;;;4.73;0.50;;;;;;;;;;5075347;28;20979;-82
2023/10/14 10:38:39;;;;;;;4.27;0.40;;;;;;;;;;5074593;28;20414;-80
2023/10/14 10:41:24;;;;;;;2.57;1.80;;;;;;;;;;5074393;28;20415;-79
2023/10/14 10:43:50;;;;;;;1.50;0.33;;;;;;;;;;5074783;28;20406;-79
2023/10/14 10:46:28;;;;;;;2.77;0.60;;;;;;;;;;5074128;28;20412;-79
2023/10/14 10:48:57;;;;;;;3.27;0.20;;;;;;;;;;5074115;28;20474;-79
2023/10/14 10:51:23;;;;;;;1.60;0.30;;;;;;;;;;5074370;28;20463;-79
2023/10/14 10:53:49;;;;;;;4.10;0.30;;;;;;;;;;5074395;28;20503;-79
2023/10/14 10:56:21;;;;;;;1.67;0.20;;;;;;;;;;5074916;28;20428;-76
2023/10/14 10:58:47;;;;;;;3.00;0.30;;;;;;;;;;5073891;28;20972;-79
2023/10/14 11:01:14;;;;;;;1.30;0.20;;;;;;;;;;5074125;28;20408;-86
2023/10/14 11:03:42;;;;;;;3.03;0.40;;;;;;;;;;5074486;28;20264;-86
2023/10/14 11:06:13;;;;;;;3.83;0.43;;;;;;;;;;5074438;28;20415;-78
2023/10/14 11:08:39;;;;;;;2.07;0.20;;;;;;;;;;5074065;28;20414;-83
2023/10/14 11:11:06;;;;;;;3.40;0.30;;;;;;;;;;5073922;28;20553;-77
2023/10/14 11:13:31;;;;;;;4.53;0.70;;;;;;;;;;5073953;28;20423;-80
2023/10/14 11:15:57;;;;;;;1.90;0.27;;;;;;;;;;5073960;28;20746;-80
2023/10/14 11:18:23;;;;;;;3.10;0.20;;;;;;;;;;5055765;28;20813;-81
2023/10/14 11:20:49;;;;;;;2.40;0.30;;;;;;;;;;5073727;28;20768;-82
2023/10/14 11:23:17;;;;;;;3.80;0.30;;;;;;;;;;5073644;28;20180;-80
2023/10/14 11:25:45;;;;;;;2.20;0.57;;;;;;;;;;5073679;28;20783;-80
2023/10/14 11:28:14;;;;;;;2.83;0.30;;;;;;;;;;5073513;28;20463;-78
2023/10/14 11:30:47;;;;;;;1.10;0.53;;;;;;;;;;5073372;28;20828;-79
2023/10/14 11:33:14;;;;;;;2.23;0.20;;;;;;;;;;5073196;28;20413;-84
2023/10/14 11:35:40;;;;;;;3.87;0.93;;;;;;;;;;5073578;28;20411;-80
2023/10/14 11:38:07;;;;;;;2.33;0.30;;;;;;;;;;5055471;28;20828;-79
2023/10/14 11:40:37;;;;;;;3.80;0.70;;;;;;;;;;5073595;28;20413;-79
2023/10/14 11:43:05;;;;;;;3.03;0.30;;;;;;;;;;5073252;28;20483;-84
2023/10/14 11:45:31;;;;;;;2.63;0.47;;;;;;;;;;5073417;28;20415;-80
2023/10/14 11:48:00;;;;;;;2.43;0.37;;;;;;;;;;5072626;28;20477;-83
2023/10/14 11:50:26;;;;;;;2.43;0.50;;;;;;;;;;5055274;28;20899;-80
2023/10/14 11:52:57;;;;;;;2.20;0.23;;;;;;;;;;5073309;28;20900;-80
2023/10/14 11:55:25;;;;;;;2.70;0.60;;;;;;;;;;5073378;28;20465;-85
2023/10/14 11:57:53;;;;;;;2.40;0.20;;;;;;;;;;5054863;28;20419;-87
2023/10/14 12:00:23;;;;;;;4.70;0.40;;;;;;;;;;5073053;28;20422;-84
2023/10/14 12:02:49;;;;;;;4.10;0.40;;;;;;;;;;5055130;28;20411;-84
2023/10/14 12:05:19;;;;;;;1.27;0.40;;;;;;;;;;5055248;28;20926;-86
2023/10/14 12:07:47;;;;;;;3.87;0.43;;;;;;;;;;5055308;28;20895;-84
2023/10/14 12:10:13;;;;;;;2.43;0.53;;;;;;;;;;5070691;28;20473;-85
2023/10/14 12:12:39;;;;;;;3.60;0.30;;;;;;;;;;5070562;28;20418;-79
2023/10/14 12:15:08;;;;;;;3.83;0.57;;;;;;;;;;5052976;28;20449;-79
2023/10/14 12:17:35;;;;;;;3.50;0.30;;;;;;;;;;5071095;28;20423;-78
2023/10/14 12:20:09;;;;;;;3.30;0.30;;;;;;;;;;5070750;28;20779;-77
2023/10/14 12:22:35;;;;;;;2.47;0.40;;;;;;;;;;5071161;28;20433;-79
2023/10/14 12:25:02;;;;;;;1.33;0.20;;;;;;;;;;5071990;28;20409;-77
2023/10/14 12:27:28;;;;;;;1.23;0.20;;;;;;;;;;5073351;28;20422;-77
2023/10/14 12:30:00;;;;;;;1.50;0.20;;;;;;;;;;5054698;28;20458;-83
2023/10/14 12:32:28;;;;;;;2.10;0.27;;;;;;;;;;5073434;28;20784;-78
2023/10/14 12:34:57;;;;;;;1.23;0.20;;;;;;;;;;5072714;28;20400;-80
2023/10/14 12:37:24;;;;;;;2.37;0.27;;;;;;;;;;5055400;28;20513;-86
2023/10/14 12:40:04;;;;;;;1.27;0.37;;;;;;;;;;5073665;28;20414;-90
2023/10/14 12:42:45;;;;;;;2.80;0.20;;;;;;;;;;5055635;28;20407;-80
2023/10/14 12:45:13;;;;;;;2.60;0.57;;;;;;;;;;5054808;28;20412;-78
2023/10/14 12:47:45;;;;;;;2.00;0.40;;;;;;;;;;5072722;28;20454;-79
2023/10/14 12:50:11;;;;;;;4.17;0.50;;;;;;;;;;5073125;28;20474;-79
2023/10/14 12:52:38;;;;;;;4.80;0.70;;;;;;;;;;5072678;28;20409;-78
2023/10/14 12:55:13;;;;;;;4.53;0.67;;;;;;;;;;5073475;28;20763;-81
2023/10/14 12:57:41;;;;;;;2.50;0.63;;;;;;;;;;5072706;28;20434;-79
2023/10/14 13:00:17;;;;;;;4.13;0.63;;;;;;;;;;5072693;28;20459;-79
2023/10/14 13:02:43;;;;;;;4.00;0.53;;;;;;;;;;5072365;28;20393;-81
2023/10/14 13:05:13;;;;;;;2.83;0.40;;;;;;;;;;5072660;28;20414;-83
2023/10/14 13:07:39;;;;;;;1.47;0.30;;;;;;;;;;5071308;28;20419;-81
2023/10/14 13:10:08;;;;;;;3.33;0.40;;;;;;;;;;5074563;28;20872;-83
2023/10/14 13:12:37;;;;;;;3.20;0.50;;;;;;;;;;5071733;28;20429;-90
2023/10/14 13:15:05;;;;;;;5.17;0.60;;;;;;;;;;5064944;28;20415;-82
2023/10/14 13:17:35;;;;;;;4.17;0.60;;;;;;;;;;5056400;28;20786;-87
2023/10/14 13:20:01;;;;;;;5.20;0.63;;;;;;;;;;5055530;28;21060;-81
2023/10/14 13:22:29;;;;;;;5.73;0.77;;;;;;;;;;5067810;28;20516;-84
2023/10/14 13:24:55;;;;;;;9.87;1.10;;;;;;;;;;5076066;28;20928;-78
2023/10/14 13:27:21;;;;;;;4.57;0.80;;;;;;;;;;5075905;28;20508;-78
2023/10/14 13:29:47;;;;;;;5.43;0.90;;;;;;;;;;5075709;28;20956;-82
2023/10/14 13:32:16;;;;;;;3.37;0.60;;;;;;;;;;5075727;28;20459;-81
2023/10/14 13:34:45;;;;;;;4.20;0.93;;;;;;;;;;5075501;28;20407;-78
2023/10/14 13:37:13;;;;;;;6.23;0.43;;;;;;;;;;5075779;28;20548;-79
2023/10/14 13:39:41;;;;;;;7.30;1.30;;;;;;;;;;5075838;28;20409;-78
2023/10/14 13:42:07;;;;;;;3.97;0.50;;;;;;;;;;5075542;28;20433;-79
2023/10/14 13:44:33;;;;;;;6.83;0.67;;;;;;;;;;5057620;28;20532;-78
2023/10/14 13:47:04;;;;;;;4.97;0.73;;;;;;;;;;5075510;28;20474;-84
2023/10/14 13:49:30;;;;;;;5.00;0.57;;;;;;;;;;5073443;28;20474;-79
2023/10/14 13:51:55;;;;;;;4.63;0.70;;;;;;;;;;5056921;28;20420;-78
2023/10/14 13:54:21;;;;;;;5.17;0.90;;;;;;;;;;5038783;28;20175;-78
2023/10/14 13:56:47;;;;;;;5.10;1.10;;;;;;;;;;5056714;28;20184;-79
2023/10/14 13:59:13;;;;;;;8.93;0.63;;;;;;;;;;5055306;28;20404;-84
2023/10/14 14:01:39;;;;;;;4.40;0.83;;;;;;;;;;5055337;28;20484;-80
2023/10/14 14:04:07;;;;;;;7.57;1.90;;;;;;;;;;5054825;28;20398;-79
2023/10/14 14:06:33;;;;;;;10.67;0.70;;;;;;;;;;5055151;28;20434;-80
2023/10/14 14:09:02;;;;;;;8.33;0.60;;;;;;;;;;5055060;28;20400;-80
2023/10/14 14:11:29;;;;;;;6.07;0.93;;;;;;;;;;5054888;28;20473;-81
2023/10/14 14:13:58;;;;;;;5.70;1.13;;;;;;;;;;5055094;28;20410;-78
2023/10/14 14:16:24;;;;;;;5.93;0.80;;;;;;;;;;5055000;28;20439;-77
2023/10/14 14:18:50;;;;;;;7.43;0.67;;;;;;;;;;5054292;28;20413;-79
2023/10/14 14:21:16;;;;;;;5.00;0.93;;;;;;;;;;5054292;28;20428;-84
2023/10/14 14:23:43;;;;;;;1.83;0.67;;;;;;;;;;5054827;28;20754;-79
2023/10/14 14:26:09;;;;;;;4.50;0.70;;;;;;;;;;5054912;28;20408;-78
2023/10/14 14:28:37;;;;;;;5.00;1.20;;;;;;;;;;5057797;28;20445;-83
2023/10/14 14:31:03;;;;;;;3.63;0.70;;;;;;;;;;5074655;28;20995;-78
2023/10/14 14:33:29;;;;;;;3.97;0.50;;;;;;;;;;5074325;28;20739;-81
2023/10/14 14:35:55;;;;;;;4.20;0.63;;;;;;;;;;5074862;28;20500;-78
2023/10/14 14:38:23;;;;;;;3.63;0.50;;;;;;;;;;5074896;28;20415;-82
2023/10/14 14:40:49;;;;;;;2.97;0.40;;;;;;;;;;5074817;28;20418;-78
2023/10/14 14:43:15;;;;;;;4.63;0.50;;;;;;;;;;5072802;28;20810;-80
2023/10/14 14:45:41;;;;;;;10.13;1.00;;;;;;;;;;5071873;28;20433;-81
2023/10/14 14:48:07;;;;;;;5.67;0.87;;;;;;;;;;5073918;28;20451;-80
2023/10/14 14:50:37;;;;;;;5.60;0.57;;;;;;;;;;5074372;28;20830;-79
2023/10/14 14:53:06;;;;;;;4.73;0.50;;;;;;;;;;5074392;28;20823;-79
2023/10/14 14:55:36;;;;;;;6.75;1.10;;;;;;;;;;5073223;28;20410;-79
2023/10/14 14:58:02;;;;;;;6.40;1.33;;;;;;;;;;5074385;28;20164;-78
2023/10/14 15:00:28;;;;;;;4.57;0.53;;;;;;;;;;5074313;28;20775;-78
2023/10/14 15:02:59;;;;;;;8.40;1.27;;;;;;;;;;5073711;28;20407;-78
2023/10/14 15:05:31;;;;;;;3.10;0.40;;;;;;;;;;5074129;28;20925;-90
2023/10/14 15:07:58;;;;;;;5.20;0.70;;;;;;;;;;5074002;28;20955;-78
2023/10/14 15:10:24;;;;;;;4.67;0.73;;;;;;;;;;5073902;28;20477;-78
2023/10/14 15:12:50;;;;;;;3.97;0.80;;;;;;;;;;5073939;28;20414;-78
2023/10/14 15:15:16;;;;;;;7.00;0.80;;;;;;;;;;5073945;28;20771;-79
2023/10/14 15:17:43;;;;;;;6.63;0.40;;;;;;;;;;5066874;28;20776;-78
2023/10/14 15:20:13;;;;;;;7.07;0.70;;;;;;;;;;5053840;28;20424;-79
2023/10/14 15:22:39;;;;;;;8.23;0.90;;;;;;;;;;5053670;28;20491;-83
2023/10/14 15:25:05;;;;;;;8.07;1.07;;;;;;;;;;5053668;28;20779;-77